createdAt,value
2019-03-13T00:02:25.115Z,0.90
2019-03-13T00:04:52.404Z,0.90
2019-03-13T00:07:19.601Z,1.00
2019-03-13T00:09:46.870Z,0.90
2019-03-13T00:12:14.682Z,0.90
2019-03-13T00:14:41.734Z,0.80
2019-03-13T00:17:09.250Z,0.90
2019-03-13T00:19:36.447Z,0.80
2019-03-13T00:22:06.651Z,0.90
2019-03-13T00:24:33.800Z,0.80
2019-03-13T00:27:01.031Z,0.80
2019-03-13T00:29:28.204Z,0.90
2019-03-13T00:31:59.414Z,0.90
2019-03-13T00:34:25.308Z,1.00
2019-03-13T00:36:52.571Z,0.70
2019-03-13T00:39:19.779Z,0.90
2019-03-13T00:41:46.866Z,1.20
2019-03-13T00:44:14.063Z,0.90
2019-03-13T00:46:41.148Z,0.90
2019-03-13T00:49:08.389Z,0.80
2019-03-13T00:52:07.383Z,0.70
2019-03-13T00:55:06.785Z,0.90
2019-03-13T01:01:05.924Z,1.33
2019-03-13T01:03:52.786Z,0.80
2019-03-13T01:06:23.176Z,0.93
2019-03-13T01:15:25.542Z,0.90
2019-03-13T01:17:52.605Z,0.80
2019-03-13T01:20:39.398Z,0.90
2019-03-13T01:23:06.516Z,1.10
2019-03-13T01:31:55.580Z,0.90
2019-03-13T01:34:48.424Z,1.10
2019-03-13T01:40:28.854Z,1.00
2019-03-13T01:46:04.524Z,1.10
2019-03-13T01:52:05.764Z,1.10
2019-03-13T01:54:32.863Z,1.13
2019-03-13T01:57:00.328Z,1.20
2019-03-13T01:59:46.920Z,1.40
2019-03-13T02:05:14.914Z,1.13
2019-03-13T02:07:42.081Z,1.10
2019-03-13T02:10:21.542Z,1.00
2019-03-13T02:16:28.840Z,1.57
2019-03-13T02:21:56.842Z,1.03
2019-03-13T02:33:46.171Z,1.20
2019-03-13T02:36:13.334Z,1.17
2019-03-13T02:38:40.562Z,1.30
2019-03-13T02:41:07.754Z,1.13
2019-03-13T02:43:34.991Z,1.10
2019-03-13T02:46:02.117Z,1.47
2019-03-13T02:49:10.147Z,1.73
2019-03-13T02:55:17.380Z,1.00
2019-03-13T02:57:44.587Z,0.90
2019-03-13T03:06:26.815Z,1.10
2019-03-13T03:08:54.013Z,0.97
2019-03-13T03:12:02.034Z,1.20
2019-03-13T03:18:03.463Z,1.00
2019-03-13T03:20:30.910Z,0.90
2019-03-13T03:34:20.427Z,1.10
2019-03-13T03:39:48.754Z,1.27
2019-03-13T03:42:15.906Z,0.97
2019-03-13T03:45:15.014Z,1.13
2019-03-13T03:47:42.081Z,1.00
2019-03-13T03:50:50.664Z,1.13
2019-03-13T03:57:23.719Z,0.90
2019-03-13T04:00:10.253Z,1.13
2019-03-13T04:03:18.293Z,0.80
2019-03-13T04:05:45.351Z,1.00
2019-03-13T04:08:12.624Z,0.80
2019-03-13T04:11:20.667Z,0.90
2019-03-13T04:26:13.373Z,1.20
2019-03-13T04:28:51.786Z,1.00
2019-03-13T04:34:20.212Z,1.00
2019-03-13T04:37:19.264Z,1.40
2019-03-13T04:39:58.583Z,1.30
2019-03-13T04:42:25.797Z,0.90
2019-03-13T04:44:53.005Z,0.90
2019-03-13T04:53:35.971Z,1.07
2019-03-13T04:56:35.427Z,1.03
2019-03-13T04:59:02.682Z,1.03
2019-03-13T05:01:30.220Z,1.27
2019-03-13T05:07:11.840Z,2.60
2019-03-13T05:10:20.481Z,1.33
2019-03-13T05:15:48.720Z,1.70
2019-03-13T05:18:15.994Z,1.40
2019-03-13T05:23:44.398Z,1.30
2019-03-13T05:26:11.942Z,1.80
2019-03-13T05:28:39.033Z,1.17
2019-03-13T05:31:47.055Z,1.53
2019-03-13T05:34:14.243Z,1.37
2019-03-13T05:36:41.829Z,2.00
2019-03-13T05:39:49.851Z,1.40
2019-03-13T05:42:17.021Z,1.57
2019-03-13T05:44:44.076Z,1.73
2019-03-13T05:53:13.937Z,2.10
2019-03-13T05:58:42.589Z,1.63
2019-03-13T06:04:11.000Z,2.10
2019-03-13T06:06:38.208Z,2.20
2019-03-13T06:12:07.547Z,1.87
2019-03-13T06:15:22.366Z,2.40
2019-03-13T06:20:50.294Z,2.60
2019-03-13T06:23:17.450Z,1.83
2019-03-13T06:25:44.602Z,2.10
2019-03-13T06:31:51.679Z,2.83
2019-03-13T06:38:11.152Z,1.83
2019-03-13T06:40:38.337Z,1.90
2019-03-13T06:43:46.359Z,1.93
2019-03-13T06:46:13.569Z,1.60
2019-03-13T06:48:40.718Z,2.27
2019-03-13T06:51:39.773Z,2.30
2019-03-13T06:54:06.959Z,2.03
2019-03-13T06:56:34.131Z,1.73
2019-03-13T06:59:20.914Z,1.90
2019-03-13T07:02:10.850Z,2.17
2019-03-13T07:04:57.595Z,2.20
2019-03-13T07:11:30.206Z,2.20
2019-03-13T07:17:24.844Z,1.60
2019-03-13T07:20:11.583Z,2.00
2019-03-13T07:22:58.420Z,1.60
2019-03-13T07:25:45.174Z,1.90
2019-03-13T07:28:31.861Z,1.40
2019-03-13T07:34:38.307Z,1.60
2019-03-13T07:37:25.115Z,1.83
2019-03-13T07:40:33.158Z,2.13
2019-03-13T07:43:20.153Z,1.57
2019-03-13T07:46:26.431Z,2.03
2019-03-13T07:52:26.858Z,1.80
2019-03-13T07:55:02.766Z,1.90
2019-03-13T07:58:11.092Z,2.20
2019-03-13T08:10:20.643Z,2.90
2019-03-13T08:13:07.388Z,1.80
2019-03-13T08:15:54.191Z,2.10
2019-03-13T08:18:40.918Z,1.60
2019-03-13T08:21:27.723Z,1.77
2019-03-13T08:24:14.449Z,1.90
2019-03-13T08:27:01.269Z,2.10
2019-03-13T08:29:48.375Z,2.30
2019-03-13T08:32:27.961Z,4.57
2019-03-13T08:35:14.713Z,2.30
2019-03-13T08:37:50.037Z,2.77
2019-03-13T08:44:10.612Z,1.80
2019-03-13T08:46:53.548Z,1.67
2019-03-13T08:49:40.377Z,1.73
2019-03-13T08:52:27.048Z,1.97
2019-03-13T08:55:13.828Z,2.23
2019-03-13T09:00:38.637Z,1.87
2019-03-13T09:03:17.834Z,2.10
2019-03-13T09:05:57.040Z,2.20
2019-03-13T09:08:43.781Z,2.97
2019-03-13T09:11:30.565Z,1.80
2019-03-13T09:14:17.333Z,2.23
2019-03-13T09:17:04.105Z,2.27
2019-03-13T09:19:50.873Z,1.97
2019-03-13T09:22:24.077Z,2.03
2019-03-13T09:28:31.374Z,1.93
2019-03-13T09:34:19.404Z,1.90
2019-03-13T09:37:06.203Z,2.20
2019-03-13T09:40:14.288Z,2.20
2019-03-13T09:43:01.299Z,2.23
2019-03-13T09:45:48.076Z,2.90
2019-03-13T09:48:34.730Z,1.87
2019-03-13T09:51:14.369Z,2.03
2019-03-13T09:54:01.162Z,2.10
2019-03-13T09:57:09.194Z,2.60
2019-03-13T10:03:30.011Z,2.27
2019-03-13T10:06:17.088Z,2.23
2019-03-13T10:12:16.032Z,1.87
2019-03-13T10:15:02.725Z,2.03
2019-03-13T10:17:36.945Z,2.10
2019-03-13T10:26:48.626Z,1.77
2019-03-13T10:29:54.811Z,2.70
2019-03-13T10:33:01.211Z,2.07
2019-03-13T10:36:09.226Z,2.00
2019-03-13T10:38:56.099Z,3.27
2019-03-13T10:41:35.373Z,1.80
2019-03-13T10:44:22.123Z,1.97
2019-03-13T10:49:57.136Z,2.27
2019-03-13T10:52:44.020Z,1.80
2019-03-13T10:55:30.804Z,2.23
2019-03-13T11:01:51.750Z,2.67
2019-03-13T11:07:28.938Z,2.10
2019-03-13T11:10:45.197Z,2.90
2019-03-13T11:13:32.067Z,2.10
2019-03-13T11:16:18.798Z,2.57
2019-03-13T11:21:56.330Z,2.00
2019-03-13T11:24:43.080Z,3.33
2019-03-13T11:27:30.030Z,2.10
2019-03-13T11:30:08.972Z,2.17
2019-03-13T11:35:48.311Z,1.97
2019-03-13T11:41:55.129Z,2.40
2019-03-13T11:44:41.902Z,2.60
2019-03-13T11:47:41.467Z,2.00
2019-03-13T11:53:58.131Z,2.53
2019-03-13T11:59:45.763Z,3.17
2019-03-13T12:05:34.072Z,2.73
2019-03-13T12:08:20.833Z,2.40
2019-03-13T12:11:28.916Z,2.10
2019-03-13T12:17:16.038Z,2.13
2019-03-13T12:19:52.622Z,3.30
2019-03-13T12:22:39.424Z,2.17
2019-03-13T12:25:27.344Z,2.47
2019-03-13T12:28:35.674Z,2.30
2019-03-13T12:34:35.037Z,3.53
2019-03-13T12:40:56.313Z,3.23
2019-03-13T12:43:43.091Z,2.87
2019-03-13T12:46:29.932Z,2.40
2019-03-13T12:49:16.982Z,3.37
2019-03-13T12:52:03.678Z,2.90
2019-03-13T12:55:09.919Z,2.50
2019-03-13T12:57:56.709Z,2.17
2019-03-13T13:03:44.241Z,2.60
2019-03-13T13:06:31.130Z,2.13
2019-03-13T13:09:17.915Z,2.03
2019-03-13T13:12:04.659Z,2.40
2019-03-13T13:15:12.709Z,3.03
2019-03-13T13:24:16.301Z,2.60
2019-03-13T13:29:21.092Z,2.13
2019-03-13T13:37:50.760Z,2.80
2019-03-13T13:40:58.761Z,2.13
2019-03-13T13:43:25.986Z,1.77
2019-03-13T13:46:38.550Z,3.43
2019-03-13T13:54:47.192Z,2.50
2019-03-13T13:57:56.998Z,1.83
2019-03-13T14:00:24.234Z,2.77
2019-03-13T14:03:32.136Z,2.10
2019-03-13T14:06:31.098Z,2.43
2019-03-13T14:08:58.339Z,2.87
2019-03-13T14:11:25.556Z,2.67
2019-03-13T14:13:53.095Z,2.30
2019-03-13T14:17:01.092Z,2.90
2019-03-13T14:20:00.404Z,2.00
2019-03-13T14:26:01.053Z,1.80
2019-03-13T14:34:30.508Z,1.97
2019-03-13T14:37:38.519Z,3.20
2019-03-13T14:43:07.051Z,1.60
2019-03-13T14:45:34.250Z,2.80
2019-03-13T14:48:13.955Z,2.10
2019-03-13T14:50:41.058Z,1.77
2019-03-13T14:53:08.322Z,1.70
2019-03-13T14:55:35.600Z,2.40
2019-03-13T14:58:02.917Z,2.00
2019-03-13T15:00:30.202Z,1.40
2019-03-13T15:02:57.577Z,4.10
2019-03-13T15:05:25.429Z,1.57
2019-03-13T15:07:52.689Z,2.80
2019-03-13T15:10:20.795Z,1.63
2019-03-13T15:19:33.696Z,2.23
2019-03-13T15:22:00.858Z,2.10
2019-03-13T15:27:29.044Z,2.03
2019-03-13T15:29:56.241Z,2.90
2019-03-13T15:32:23.483Z,2.13
2019-03-13T15:35:31.542Z,2.30
2019-03-13T15:37:59.180Z,2.77
2019-03-13T15:40:26.416Z,1.70
2019-03-13T15:42:53.981Z,2.13
2019-03-13T15:45:32.873Z,1.87
2019-03-13T15:51:13.372Z,3.70
2019-03-13T15:57:00.955Z,2.23
2019-03-13T15:59:28.067Z,1.90
2019-03-13T16:01:55.288Z,2.93
2019-03-13T16:04:22.547Z,2.60
2019-03-13T16:06:49.710Z,1.60
2019-03-13T16:09:57.767Z,2.17
2019-03-13T16:12:24.997Z,2.20
2019-03-13T16:14:52.186Z,2.13
2019-03-13T16:17:19.818Z,2.10
2019-03-13T16:20:27.815Z,2.13
2019-03-13T16:26:32.707Z,2.10
2019-03-13T16:28:59.924Z,2.33
2019-03-13T16:31:27.091Z,2.10
2019-03-13T16:33:54.628Z,2.73
2019-03-13T16:39:49.510Z,1.70
2019-03-13T16:42:16.683Z,2.10
2019-03-13T16:44:43.971Z,2.27
2019-03-13T16:47:11.172Z,2.07
2019-03-13T16:49:39.300Z,1.60
2019-03-13T16:52:27.338Z,1.53
2019-03-13T16:54:54.566Z,1.90
2019-03-13T16:57:21.756Z,2.57
2019-03-13T16:59:59.962Z,2.33
2019-03-13T17:02:37.757Z,2.07
2019-03-13T17:05:17.282Z,2.33
2019-03-13T17:11:18.013Z,2.13
2019-03-13T17:16:53.431Z,2.27
2019-03-13T17:19:20.592Z,2.87
2019-03-13T17:21:48.111Z,2.60
2019-03-13T17:30:37.034Z,3.23
2019-03-13T17:33:04.267Z,2.40
2019-03-13T17:35:33.274Z,3.20
2019-03-13T17:41:01.541Z,2.80
2019-03-13T17:43:38.678Z,2.37
2019-03-13T17:46:07.519Z,2.90
2019-03-13T17:48:35.048Z,2.17
2019-03-13T17:51:02.160Z,2.90
2019-03-13T17:57:15.494Z,2.00
2019-03-13T17:59:42.851Z,2.00
2019-03-13T18:02:10.084Z,2.60
2019-03-13T18:04:37.252Z,1.43
2019-03-13T18:07:04.485Z,2.03
2019-03-13T18:09:31.678Z,2.30
2019-03-13T18:11:59.335Z,1.80
2019-03-13T18:17:05.523Z,1.97
2019-03-13T18:19:44.526Z,1.87
2019-03-13T18:22:11.883Z,1.57
2019-03-13T18:24:50.806Z,1.63
2019-03-13T18:27:18.008Z,2.10
2019-03-13T18:29:45.509Z,2.17
2019-03-13T18:33:00.203Z,2.03
2019-03-13T18:35:27.421Z,1.97
2019-03-13T18:37:54.587Z,1.40
2019-03-13T18:40:21.828Z,2.00
2019-03-13T18:43:02.063Z,3.10
2019-03-13T18:46:10.159Z,2.00
2019-03-13T18:48:37.783Z,2.90
2019-03-13T18:51:04.853Z,1.63
2019-03-13T18:53:43.820Z,1.60
2019-03-13T18:56:11.002Z,1.67
2019-03-13T18:58:38.267Z,1.97
2019-03-13T19:01:46.579Z,1.90
2019-03-13T19:04:13.777Z,1.97
2019-03-13T19:06:40.960Z,2.07
2019-03-13T19:09:08.185Z,1.70
2019-03-13T19:15:21.588Z,1.50
2019-03-13T19:21:11.430Z,1.37
2019-03-13T19:23:50.648Z,1.47
2019-03-13T19:29:19.098Z,1.40
2019-03-13T19:31:46.356Z,1.20
2019-03-13T19:34:13.563Z,1.40
2019-03-13T19:36:40.804Z,1.50
2019-03-13T19:39:07.986Z,1.60
2019-03-13T19:41:35.244Z,0.90
2019-03-13T19:44:15.161Z,1.60
2019-03-13T19:46:42.671Z,1.30
2019-03-13T19:49:09.817Z,1.07
2019-03-13T19:54:36.488Z,0.80
2019-03-13T20:00:40.244Z,0.73
2019-03-13T20:06:21.005Z,1.03
2019-03-13T20:14:48.839Z,1.20
2019-03-13T20:17:16.463Z,1.40
2019-03-13T20:23:25.476Z,1.20
2019-03-13T20:25:53.052Z,1.10
2019-03-13T20:31:33.941Z,1.57
2019-03-13T20:34:01.254Z,1.60
2019-03-13T20:36:30.414Z,2.10
2019-03-13T20:38:57.645Z,1.50
2019-03-13T20:50:36.439Z,1.47
2019-03-13T20:53:07.470Z,1.60
2019-03-13T20:55:35.328Z,1.23
2019-03-13T20:58:02.623Z,1.50
2019-03-13T21:06:32.498Z,1.20
2019-03-13T21:09:11.858Z,1.20
2019-03-13T21:14:39.991Z,0.93
2019-03-13T21:17:07.186Z,0.90
2019-03-13T21:19:34.738Z,1.07
2019-03-13T21:25:28.179Z,1.27
2019-03-13T21:27:55.429Z,1.13
2019-03-13T21:36:25.870Z,1.60
2019-03-13T21:38:53.003Z,1.10
2019-03-13T21:41:20.190Z,1.40
2019-03-13T21:44:28.543Z,1.70
2019-03-13T21:46:55.777Z,1.40
2019-03-13T21:49:22.869Z,1.40
2019-03-13T21:51:50.172Z,1.40
2019-03-13T22:00:59.203Z,1.50
2019-03-13T22:06:28.644Z,1.50
2019-03-13T22:12:15.847Z,1.80
2019-03-13T22:14:42.963Z,1.77
2019-03-13T22:17:10.131Z,1.50
2019-03-13T22:19:37.417Z,2.27
2019-03-13T22:22:04.976Z,2.47
2019-03-13T22:24:32.217Z,2.20
2019-03-13T22:26:59.769Z,2.20
2019-03-13T22:33:20.043Z,1.70
2019-03-13T22:35:47.147Z,1.77
2019-03-13T22:38:14.401Z,1.70
2019-03-13T22:43:34.650Z,1.90
2019-03-13T22:46:09.538Z,1.50
2019-03-13T22:52:11.408Z,1.63
2019-03-13T22:54:38.953Z,1.77
2019-03-13T22:57:06.017Z,1.90
2019-03-13T22:59:33.254Z,1.70
2019-03-13T23:05:22.968Z,1.60
2019-03-13T23:10:51.915Z,1.60
2019-03-13T23:13:25.528Z,1.97
2019-03-13T23:15:52.639Z,1.57
2019-03-13T23:18:19.805Z,1.90
2019-03-13T23:20:46.893Z,3.20
2019-03-13T23:23:54.826Z,1.50
2019-03-13T23:26:22.148Z,1.70
2019-03-13T23:29:30.460Z,2.00
2019-03-13T23:32:17.500Z,1.70
2019-03-13T23:35:25.564Z,1.80
2019-03-13T23:41:58.448Z,1.70
2019-03-13T23:47:58.223Z,1.73
2019-03-13T23:50:25.814Z,1.63
2019-03-13T23:52:52.992Z,1.70
2019-03-13T23:56:02.125Z,1.30
2019-03-13T23:58:29.564Z,1.50
